sensor_id;sensor_type;location;lat;lon;timestamp;P1;durP1;ratioP1;P2;durP2;ratioP2
37641;SDS011;23486;51.956;5.888;2023-04-24T00:00:07;7.78;;;5.95;;
37641;SDS011;23486;51.956;5.888;2023-04-24T00:02:37;9.95;;;7.07;;
37641;SDS011;23486;51.956;5.888;2023-04-24T00:05:07;9.32;;;7.40;;
37641;SDS011;23486;51.956;5.888;2023-04-24T00:07:33;8.68;;;7.35;;
37641;SDS011;23486;51.956;5.888;2023-04-24T00:09:59;9.20;;;7.38;;
37641;SDS011;23486;51.956;5.888;2023-04-24T00:12:25;13.45;;;9.18;;
37641;SDS011;23486;51.956;5.888;2023-04-24T00:14:51;10.98;;;8.98;;
37641;SDS011;23486;51.956;5.888;2023-04-24T00:17:16;9.38;;;7.68;;
37641;SDS011;23486;51.956;5.888;2023-04-24T00:19:45;8.02;;;6.13;;
37641;SDS011;23486;51.956;5.888;2023-04-24T00:22:10;8.40;;;4.93;;
37641;SDS011;23486;51.956;5.888;2023-04-24T00:24:38;5.35;;;3.65;;
37641;SDS011;23486;51.956;5.888;2023-04-24T00:27:04;6.35;;;3.72;;
37641;SDS011;23486;51.956;5.888;2023-04-24T00:29:29;4.03;;;2.75;;
37641;SDS011;23486;51.956;5.888;2023-04-24T00:31:55;4.00;;;1.83;;
37641;SDS011;23486;51.956;5.888;2023-04-24T00:34:21;3.45;;;1.88;;
37641;SDS011;23486;51.956;5.888;2023-04-24T00:36:46;4.53;;;2.28;;
37641;SDS011;23486;51.956;5.888;2023-04-24T00:39:14;3.60;;;1.88;;
37641;SDS011;23486;51.956;5.888;2023-04-24T00:41:40;2.97;;;1.63;;
37641;SDS011;23486;51.956;5.888;2023-04-24T00:44:06;3.38;;;1.90;;
37641;SDS011;23486;51.956;5.888;2023-04-24T00:46:32;3.20;;;1.40;;
37641;SDS011;23486;51.956;5.888;2023-04-24T00:48:58;4.78;;;1.45;;
37641;SDS011;23486;51.956;5.888;2023-04-24T00:51:24;3.58;;;1.40;;
37641;SDS011;23486;51.956;5.888;2023-04-24T00:53:50;2.60;;;1.30;;
37641;SDS011;23486;51.956;5.888;2023-04-24T00:56:19;2.85;;;1.63;;
37641;SDS011;23486;51.956;5.888;2023-04-24T00:58:48;3.58;;;2.20;;
37641;SDS011;23486;51.956;5.888;2023-04-24T01:01:18;4.03;;;2.67;;
37641;SDS011;23486;51.956;5.888;2023-04-24T01:03:49;6.00;;;3.70;;
37641;SDS011;23486;51.956;5.888;2023-04-24T01:06:16;8.25;;;5.78;;
37641;SDS011;23486;51.956;5.888;2023-04-24T01:08:43;12.13;;;8.25;;
37641;SDS011;23486;51.956;5.888;2023-04-24T01:11:11;13.93;;;9.73;;
37641;SDS011;23486;51.956;5.888;2023-04-24T01:13:37;18.13;;;12.98;;
37641;SDS011;23486;51.956;5.888;2023-04-24T01:16:02;22.02;;;15.73;;
37641;SDS011;23486;51.956;5.888;2023-04-24T01:18:28;22.95;;;15.93;;
37641;SDS011;23486;51.956;5.888;2023-04-24T01:20:56;21.83;;;16.00;;
37641;SDS011;23486;51.956;5.888;2023-04-24T01:23:23;24.58;;;16.30;;
37641;SDS011;23486;51.956;5.888;2023-04-24T01:25:49;29.65;;;18.17;;
37641;SDS011;23486;51.956;5.888;2023-04-24T01:28:16;26.85;;;17.30;;
37641;SDS011;23486;51.956;5.888;2023-04-24T01:30:42;24.40;;;16.67;;
37641;SDS011;23486;51.956;5.888;2023-04-24T01:33:08;28.08;;;20.15;;
37641;SDS011;23486;51.956;5.888;2023-04-24T01:35:34;26.17;;;17.67;;
37641;SDS011;23486;51.956;5.888;2023-04-24T01:38:01;24.38;;;16.67;;
37641;SDS011;23486;51.956;5.888;2023-04-24T01:40:27;22.00;;;15.73;;
37641;SDS011;23486;51.956;5.888;2023-04-24T01:42:52;24.25;;;17.52;;
37641;SDS011;23486;51.956;5.888;2023-04-24T01:45:18;23.80;;;16.63;;
37641;SDS011;23486;51.956;5.888;2023-04-24T01:47:44;22.33;;;15.68;;
37641;SDS011;23486;51.956;5.888;2023-04-24T01:50:10;25.13;;;17.80;;
37641;SDS011;23486;51.956;5.888;2023-04-24T01:52:36;21.02;;;14.98;;
37641;SDS011;23486;51.956;5.888;2023-04-24T01:55:02;20.27;;;14.98;;
37641;SDS011;23486;51.956;5.888;2023-04-24T01:57:29;20.42;;;15.85;;
37641;SDS011;23486;51.956;5.888;2023-04-24T01:59:55;25.02;;;17.00;;
37641;SDS011;23486;51.956;5.888;2023-04-24T02:02:21;20.83;;;14.95;;
37641;SDS011;23486;51.956;5.888;2023-04-24T02:04:49;23.80;;;16.73;;
37641;SDS011;23486;51.956;5.888;2023-04-24T02:07:15;21.95;;;16.77;;
37641;SDS011;23486;51.956;5.888;2023-04-24T02:09:40;21.75;;;16.80;;
37641;SDS011;23486;51.956;5.888;2023-04-24T02:12:06;23.42;;;17.55;;
37641;SDS011;23486;51.956;5.888;2023-04-24T02:14:32;26.35;;;18.00;;
37641;SDS011;23486;51.956;5.888;2023-04-24T02:16:57;23.73;;;17.80;;
37641;SDS011;23486;51.956;5.888;2023-04-24T02:19:23;28.55;;;20.20;;
37641;SDS011;23486;51.956;5.888;2023-04-24T02:21:49;27.17;;;19.63;;
37641;SDS011;23486;51.956;5.888;2023-04-24T02:24:18;31.13;;;21.98;;
37641;SDS011;23486;51.956;5.888;2023-04-24T02:26:43;32.20;;;22.35;;
37641;SDS011;23486;51.956;5.888;2023-04-24T02:29:09;30.40;;;21.92;;
37641;SDS011;23486;51.956;5.888;2023-04-24T02:31:35;32.45;;;22.83;;
37641;SDS011;23486;51.956;5.888;2023-04-24T02:34:01;27.70;;;22.23;;
37641;SDS011;23486;51.956;5.888;2023-04-24T02:36:26;28.55;;;20.42;;
37641;SDS011;23486;51.956;5.888;2023-04-24T02:38:52;31.20;;;22.85;;
37641;SDS011;23486;51.956;5.888;2023-04-24T02:41:17;36.88;;;24.60;;
37641;SDS011;23486;51.956;5.888;2023-04-24T02:43:43;31.80;;;22.38;;
37641;SDS011;23486;51.956;5.888;2023-04-24T02:46:09;27.27;;;21.42;;
37641;SDS011;23486;51.956;5.888;2023-04-24T02:48:34;34.97;;;23.35;;
37641;SDS011;23486;51.956;5.888;2023-04-24T02:51:02;30.00;;;21.83;;
37641;SDS011;23486;51.956;5.888;2023-04-24T02:53:28;29.38;;;20.17;;
37641;SDS011;23486;51.956;5.888;2023-04-24T02:55:55;28.58;;;20.10;;
37641;SDS011;23486;51.956;5.888;2023-04-24T02:58:21;27.77;;;19.70;;
37641;SDS011;23486;51.956;5.888;2023-04-24T03:00:47;29.48;;;20.25;;
37641;SDS011;23486;51.956;5.888;2023-04-24T03:03:13;33.63;;;20.02;;
37641;SDS011;23486;51.956;5.888;2023-04-24T03:05:41;29.77;;;19.88;;
37641;SDS011;23486;51.956;5.888;2023-04-24T03:08:07;25.17;;;18.10;;
37641;SDS011;23486;51.956;5.888;2023-04-24T03:10:32;28.15;;;18.92;;
37641;SDS011;23486;51.956;5.888;2023-04-24T03:12:58;27.27;;;19.20;;
37641;SDS011;23486;51.956;5.888;2023-04-24T03:15:23;30.85;;;19.50;;
37641;SDS011;23486;51.956;5.888;2023-04-24T03:17:49;25.08;;;18.65;;
37641;SDS011;23486;51.956;5.888;2023-04-24T03:20:15;26.75;;;18.58;;
37641;SDS011;23486;51.956;5.888;2023-04-24T03:22:40;26.80;;;17.77;;
37641;SDS011;23486;51.956;5.888;2023-04-24T03:25:06;27.20;;;19.50;;
37641;SDS011;23486;51.956;5.888;2023-04-24T03:27:34;26.38;;;18.52;;
37641;SDS011;23486;51.956;5.888;2023-04-24T03:29:59;26.77;;;19.17;;
37641;SDS011;23486;51.956;5.888;2023-04-24T03:32:25;26.80;;;19.40;;
37641;SDS011;23486;51.956;5.888;2023-04-24T03:34:51;28.88;;;19.30;;
37641;SDS011;23486;51.956;5.888;2023-04-24T03:37:17;25.05;;;18.95;;
37641;SDS011;23486;51.956;5.888;2023-04-24T03:39:43;37.00;;;26.45;;
37641;SDS011;23486;51.956;5.888;2023-04-24T03:42:08;38.97;;;26.05;;
37641;SDS011;23486;51.956;5.888;2023-04-24T03:44:34;39.83;;;27.77;;
37641;SDS011;23486;51.956;5.888;2023-04-24T03:47:01;40.63;;;28.48;;
37641;SDS011;23486;51.956;5.888;2023-04-24T03:49:26;46.53;;;31.52;;
37641;SDS011;23486;51.956;5.888;2023-04-24T03:51:52;43.45;;;30.50;;
37641;SDS011;23486;51.956;5.888;2023-04-24T03:54:18;46.65;;;31.17;;
37641;SDS011;23486;51.956;5.888;2023-04-24T03:56:44;48.50;;;32.08;;
37641;SDS011;23486;51.956;5.888;2023-04-24T03:59:10;47.97;;;31.27;;
37641;SDS011;23486;51.956;5.888;2023-04-24T04:01:35;45.47;;;32.33;;
37641;SDS011;23486;51.956;5.888;2023-04-24T04:04:02;50.72;;;35.35;;
37641;SDS011;23486;51.956;5.888;2023-04-24T04:06:28;55.80;;;34.03;;
37641;SDS011;23486;51.956;5.888;2023-04-24T04:08:55;47.72;;;32.45;;
37641;SDS011;23486;51.956;5.888;2023-04-24T04:11:21;51.05;;;33.88;;
37641;SDS011;23486;51.956;5.888;2023-04-24T04:13:47;41.50;;;30.05;;
37641;SDS011;23486;51.956;5.888;2023-04-24T04:16:13;44.47;;;30.95;;
37641;SDS011;23486;51.956;5.888;2023-04-24T04:18:41;48.30;;;31.50;;
37641;SDS011;23486;51.956;5.888;2023-04-24T04:21:07;45.47;;;32.05;;
37641;SDS011;23486;51.956;5.888;2023-04-24T04:23:32;48.53;;;31.35;;
37641;SDS011;23486;51.956;5.888;2023-04-24T04:25:58;43.35;;;30.98;;
37641;SDS011;23486;51.956;5.888;2023-04-24T04:28:24;41.92;;;27.48;;
37641;SDS011;23486;51.956;5.888;2023-04-24T04:30:50;41.35;;;28.02;;
37641;SDS011;23486;51.956;5.888;2023-04-24T04:33:20;39.53;;;28.92;;
37641;SDS011;23486;51.956;5.888;2023-04-24T04:35:46;41.00;;;29.88;;
37641;SDS011;23486;51.956;5.888;2023-04-24T04:38:16;37.20;;;26.98;;
37641;SDS011;23486;51.956;5.888;2023-04-24T04:40:43;42.35;;;26.25;;
37641;SDS011;23486;51.956;5.888;2023-04-24T04:43:09;35.22;;;24.92;;
37641;SDS011;23486;51.956;5.888;2023-04-24T04:45:35;36.70;;;25.48;;
37641;SDS011;23486;51.956;5.888;2023-04-24T04:48:06;40.33;;;26.75;;
37641;SDS011;23486;51.956;5.888;2023-04-24T04:50:32;35.35;;;24.35;;
37641;SDS011;23486;51.956;5.888;2023-04-24T04:52:58;32.83;;;22.55;;
37641;SDS011;23486;51.956;5.888;2023-04-24T04:55:24;31.15;;;24.33;;
37641;SDS011;23486;51.956;5.888;2023-04-24T04:57:50;35.63;;;23.45;;
37641;SDS011;23486;51.956;5.888;2023-04-24T05:00:17;31.85;;;21.92;;
37641;SDS011;23486;51.956;5.888;2023-04-24T05:02:43;35.80;;;23.25;;
37641;SDS011;23486;51.956;5.888;2023-04-24T05:05:09;34.33;;;24.20;;
37641;SDS011;23486;51.956;5.888;2023-04-24T05:07:35;35.17;;;23.17;;
37641;SDS011;23486;51.956;5.888;2023-04-24T05:10:00;32.78;;;22.85;;
37641;SDS011;23486;51.956;5.888;2023-04-24T05:12:26;34.40;;;22.85;;
37641;SDS011;23486;51.956;5.888;2023-04-24T05:14:52;31.23;;;21.98;;
37641;SDS011;23486;51.956;5.888;2023-04-24T05:17:20;34.85;;;24.08;;
37641;SDS011;23486;51.956;5.888;2023-04-24T05:19:46;33.10;;;22.58;;
37641;SDS011;23486;51.956;5.888;2023-04-24T05:22:14;34.05;;;22.98;;
37641;SDS011;23486;51.956;5.888;2023-04-24T05:24:40;31.00;;;22.92;;
37641;SDS011;23486;51.956;5.888;2023-04-24T05:27:05;30.05;;;21.80;;
37641;SDS011;23486;51.956;5.888;2023-04-24T05:29:31;29.55;;;20.48;;
37641;SDS011;23486;51.956;5.888;2023-04-24T05:31:58;29.45;;;19.60;;
37641;SDS011;23486;51.956;5.888;2023-04-24T05:34:24;28.35;;;19.23;;
37641;SDS011;23486;51.956;5.888;2023-04-24T05:36:50;24.95;;;17.38;;
37641;SDS011;23486;51.956;5.888;2023-04-24T05:39:16;27.30;;;19.05;;
37641;SDS011;23486;51.956;5.888;2023-04-24T05:41:41;30.05;;;18.90;;
37641;SDS011;23486;51.956;5.888;2023-04-24T05:44:07;23.92;;;16.33;;
37641;SDS011;23486;51.956;5.888;2023-04-24T05:46:34;24.13;;;17.13;;
37641;SDS011;23486;51.956;5.888;2023-04-24T05:49:00;25.52;;;17.13;;
37641;SDS011;23486;51.956;5.888;2023-04-24T05:51:28;25.92;;;17.00;;
37641;SDS011;23486;51.956;5.888;2023-04-24T05:53:54;24.92;;;16.35;;
37641;SDS011;23486;51.956;5.888;2023-04-24T05:56:20;21.42;;;14.00;;
37641;SDS011;23486;51.956;5.888;2023-04-24T05:58:46;18.63;;;12.75;;
37641;SDS011;23486;51.956;5.888;2023-04-24T06:01:12;21.25;;;13.80;;
37641;SDS011;23486;51.956;5.888;2023-04-24T06:03:39;24.95;;;16.13;;
37641;SDS011;23486;51.956;5.888;2023-04-24T06:06:06;20.45;;;13.90;;
37641;SDS011;23486;51.956;5.888;2023-04-24T06:08:32;16.95;;;11.25;;
37641;SDS011;23486;51.956;5.888;2023-04-24T06:10:57;21.38;;;13.57;;
37641;SDS011;23486;51.956;5.888;2023-04-24T06:13:23;20.95;;;14.82;;
37641;SDS011;23486;51.956;5.888;2023-04-24T06:15:49;19.67;;;13.10;;
37641;SDS011;23486;51.956;5.888;2023-04-24T06:18:18;21.02;;;13.95;;
37641;SDS011;23486;51.956;5.888;2023-04-24T06:20:44;24.92;;;15.30;;
37641;SDS011;23486;51.956;5.888;2023-04-24T06:23:10;18.80;;;12.93;;
37641;SDS011;23486;51.956;5.888;2023-04-24T06:25:36;22.50;;;15.13;;
37641;SDS011;23486;51.956;5.888;2023-04-24T06:28:02;20.75;;;14.23;;
37641;SDS011;23486;51.956;5.888;2023-04-24T06:30:28;18.15;;;11.98;;
37641;SDS011;23486;51.956;5.888;2023-04-24T06:32:53;18.13;;;11.77;;
37641;SDS011;23486;51.956;5.888;2023-04-24T06:35:19;17.10;;;12.65;;
37641;SDS011;23486;51.956;5.888;2023-04-24T06:37:45;17.77;;;12.55;;
37641;SDS011;23486;51.956;5.888;2023-04-24T06:40:11;21.63;;;12.98;;
37641;SDS011;23486;51.956;5.888;2023-04-24T06:42:36;13.93;;;9.88;;
37641;SDS011;23486;51.956;5.888;2023-04-24T06:45:02;16.15;;;10.57;;
37641;SDS011;23486;51.956;5.888;2023-04-24T06:47:28;14.10;;;8.73;;
37641;SDS011;23486;51.956;5.888;2023-04-24T06:49:54;12.27;;;8.13;;
37641;SDS011;23486;51.956;5.888;2023-04-24T06:52:20;12.48;;;8.25;;
37641;SDS011;23486;51.956;5.888;2023-04-24T06:54:46;14.77;;;9.98;;
37641;SDS011;23486;51.956;5.888;2023-04-24T06:57:11;12.95;;;8.75;;
37641;SDS011;23486;51.956;5.888;2023-04-24T06:59:37;10.88;;;7.70;;
37641;SDS011;23486;51.956;5.888;2023-04-24T07:02:03;15.68;;;7.60;;
37641;SDS011;23486;51.956;5.888;2023-04-24T07:04:29;9.43;;;6.38;;
37641;SDS011;23486;51.956;5.888;2023-04-24T07:06:55;11.40;;;7.40;;
37641;SDS011;23486;51.956;5.888;2023-04-24T07:09:21;11.88;;;6.03;;
37641;SDS011;23486;51.956;5.888;2023-04-24T07:11:48;9.52;;;6.57;;
37641;SDS011;23486;51.956;5.888;2023-04-24T07:14:15;8.25;;;5.18;;
37641;SDS011;23486;51.956;5.888;2023-04-24T07:16:40;6.45;;;4.18;;
37641;SDS011;23486;51.956;5.888;2023-04-24T07:19:07;5.63;;;3.38;;
37641;SDS011;23486;51.956;5.888;2023-04-24T07:21:33;6.00;;;3.28;;
37641;SDS011;23486;51.956;5.888;2023-04-24T07:23:59;4.72;;;2.22;;
37641;SDS011;23486;51.956;5.888;2023-04-24T07:26:26;4.60;;;2.25;;
37641;SDS011;23486;51.956;5.888;2023-04-24T07:28:53;4.80;;;1.90;;
37641;SDS011;23486;51.956;5.888;2023-04-24T07:31:18;3.65;;;1.27;;
37641;SDS011;23486;51.956;5.888;2023-04-24T07:33:44;2.15;;;0.80;;
37641;SDS011;23486;51.956;5.888;2023-04-24T07:36:13;2.72;;;0.55;;
37641;SDS011;23486;51.956;5.888;2023-04-24T07:38:42;1.65;;;0.55;;
37641;SDS011;23486;51.956;5.888;2023-04-24T07:41:08;3.40;;;0.73;;
37641;SDS011;23486;51.956;5.888;2023-04-24T07:43:33;2.55;;;0.80;;
37641;SDS011;23486;51.956;5.888;2023-04-24T07:45:59;4.50;;;1.55;;
37641;SDS011;23486;51.956;5.888;2023-04-24T07:48:25;4.57;;;2.00;;
37641;SDS011;23486;51.956;5.888;2023-04-24T07:50:51;5.72;;;2.10;;
37641;SDS011;23486;51.956;5.888;2023-04-24T07:53:17;9.02;;;4.28;;
37641;SDS011;23486;51.956;5.888;2023-04-24T07:55:42;9.23;;;4.55;;
37641;SDS011;23486;51.956;5.888;2023-04-24T07:58:08;10.35;;;5.80;;
37641;SDS011;23486;51.956;5.888;2023-04-24T08:00:34;10.90;;;8.05;;
37641;SDS011;23486;51.956;5.888;2023-04-24T08:03:00;17.55;;;10.60;;
37641;SDS011;23486;51.956;5.888;2023-04-24T08:05:25;16.83;;;10.80;;
37641;SDS011;23486;51.956;5.888;2023-04-24T08:07:53;18.52;;;11.30;;
37641;SDS011;23486;51.956;5.888;2023-04-24T08:10:22;19.73;;;10.90;;
37641;SDS011;23486;51.956;5.888;2023-04-24T08:12:48;19.05;;;11.15;;
37641;SDS011;23486;51.956;5.888;2023-04-24T08:15:17;20.38;;;12.07;;
37641;SDS011;23486;51.956;5.888;2023-04-24T08:17:43;21.23;;;12.85;;
37641;SDS011;23486;51.956;5.888;2023-04-24T08:20:09;21.98;;;12.88;;
37641;SDS011;23486;51.956;5.888;2023-04-24T08:22:38;22.77;;;13.55;;
37641;SDS011;23486;51.956;5.888;2023-04-24T08:25:08;18.58;;;12.73;;
37641;SDS011;23486;51.956;5.888;2023-04-24T08:27:35;23.02;;;12.40;;
37641;SDS011;23486;51.956;5.888;2023-04-24T08:30:01;19.20;;;12.43;;
37641;SDS011;23486;51.956;5.888;2023-04-24T08:32:31;19.15;;;11.25;;
37641;SDS011;23486;51.956;5.888;2023-04-24T08:34:57;24.83;;;13.60;;
37641;SDS011;23486;51.956;5.888;2023-04-24T08:37:23;24.80;;;13.23;;
37641;SDS011;23486;51.956;5.888;2023-04-24T08:39:49;28.17;;;13.85;;
37641;SDS011;23486;51.956;5.888;2023-04-24T08:42:15;22.42;;;13.45;;
37641;SDS011;23486;51.956;5.888;2023-04-24T08:44:42;27.20;;;14.68;;
37641;SDS011;23486;51.956;5.888;2023-04-24T08:47:09;25.88;;;13.43;;
37641;SDS011;23486;51.956;5.888;2023-04-24T08:49:36;20.60;;;12.75;;
37641;SDS011;23486;51.956;5.888;2023-04-24T08:52:02;23.92;;;14.65;;
37641;SDS011;23486;51.956;5.888;2023-04-24T08:54:29;22.73;;;13.43;;
37641;SDS011;23486;51.956;5.888;2023-04-24T08:56:58;19.95;;;11.82;;
37641;SDS011;23486;51.956;5.888;2023-04-24T08:59:31;24.67;;;12.68;;
37641;SDS011;23486;51.956;5.888;2023-04-24T09:01:57;27.30;;;13.82;;
37641;SDS011;23486;51.956;5.888;2023-04-24T09:04:23;15.93;;;8.13;;
37641;SDS011;23486;51.956;5.888;2023-04-24T09:06:56;14.45;;;7.85;;
37641;SDS011;23486;51.956;5.888;2023-04-24T09:09:23;16.48;;;6.63;;
37641;SDS011;23486;51.956;5.888;2023-04-24T09:11:50;21.05;;;5.55;;
37641;SDS011;23486;51.956;5.888;2023-04-24T09:14:18;9.75;;;3.97;;
37641;SDS011;23486;51.956;5.888;2023-04-24T09:16:44;22.90;;;5.15;;
37641;SDS011;23486;51.956;5.888;2023-04-24T09:19:10;17.00;;;5.70;;
37641;SDS011;23486;51.956;5.888;2023-04-24T09:21:36;17.48;;;5.53;;
37641;SDS011;23486;51.956;5.888;2023-04-24T09:24:03;15.73;;;5.35;;
37641;SDS011;23486;51.956;5.888;2023-04-24T09:26:30;18.88;;;5.28;;
37641;SDS011;23486;51.956;5.888;2023-04-24T09:28:57;13.88;;;4.63;;
37641;SDS011;23486;51.956;5.888;2023-04-24T09:31:23;20.88;;;5.40;;
37641;SDS011;23486;51.956;5.888;2023-04-24T09:34:03;14.50;;;4.35;;
37641;SDS011;23486;51.956;5.888;2023-04-24T09:36:33;18.23;;;5.13;;
37641;SDS011;23486;51.956;5.888;2023-04-24T09:39:04;13.02;;;4.53;;
37641;SDS011;23486;51.956;5.888;2023-04-24T09:41:33;15.43;;;4.15;;
37641;SDS011;23486;51.956;5.888;2023-04-24T09:44:15;12.30;;;3.50;;
37641;SDS011;23486;51.956;5.888;2023-04-24T09:46:51;16.73;;;3.08;;
37641;SDS011;23486;51.956;5.888;2023-04-24T09:51:51;11.40;;;1.98;;
37641;SDS011;23486;51.956;5.888;2023-04-24T09:54:26;15.15;;;3.10;;
37641;SDS011;23486;51.956;5.888;2023-04-24T09:56:52;9.25;;;2.28;;
37641;SDS011;23486;51.956;5.888;2023-04-24T09:59:19;12.85;;;2.88;;
37641;SDS011;23486;51.956;5.888;2023-04-24T10:01:45;10.10;;;2.72;;
37641;SDS011;23486;51.956;5.888;2023-04-24T10:04:20;10.43;;;2.58;;
37641;SDS011;23486;51.956;5.888;2023-04-24T10:06:53;21.00;;;2.97;;
37641;SDS011;23486;51.956;5.888;2023-04-24T10:09:21;9.73;;;1.58;;
37641;SDS011;23486;51.956;5.888;2023-04-24T10:11:49;11.05;;;1.88;;
37641;SDS011;23486;51.956;5.888;2023-04-24T10:14:16;11.10;;;1.55;;
37641;SDS011;23486;51.956;5.888;2023-04-24T10:16:46;10.80;;;1.92;;
37641;SDS011;23486;51.956;5.888;2023-04-24T10:19:13;9.00;;;1.98;;
37641;SDS011;23486;51.956;5.888;2023-04-24T10:21:40;15.82;;;2.30;;
37641;SDS011;23486;51.956;5.888;2023-04-24T10:24:17;10.60;;;1.95;;
37641;SDS011;23486;51.956;5.888;2023-04-24T10:26:44;13.18;;;2.17;;
37641;SDS011;23486;51.956;5.888;2023-04-24T10:29:15;10.90;;;1.52;;
37641;SDS011;23486;51.956;5.888;2023-04-24T10:31:42;9.48;;;1.80;;
37641;SDS011;23486;51.956;5.888;2023-04-24T10:34:10;12.80;;;2.10;;
37641;SDS011;23486;51.956;5.888;2023-04-24T10:36:37;8.15;;;1.80;;
37641;SDS011;23486;51.956;5.888;2023-04-24T10:39:07;7.53;;;1.88;;
37641;SDS011;23486;51.956;5.888;2023-04-24T10:41:36;9.82;;;1.27;;
37641;SDS011;23486;51.956;5.888;2023-04-24T10:44:12;7.90;;;1.42;;
37641;SDS011;23486;51.956;5.888;2023-04-24T10:46:42;7.75;;;2.15;;
37641;SDS011;23486;51.956;5.888;2023-04-24T10:49:09;5.15;;;0.95;;
37641;SDS011;23486;51.956;5.888;2023-04-24T11:02:14;6.65;;;0.82;;
37641;SDS011;23486;51.956;5.888;2023-04-24T11:04:43;5.75;;;0.80;;
37641;SDS011;23486;51.956;5.888;2023-04-24T11:07:12;3.88;;;0.60;;
37641;SDS011;23486;51.956;5.888;2023-04-24T11:09:37;6.43;;;0.65;;
37641;SDS011;23486;51.956;5.888;2023-04-24T11:12:07;5.47;;;0.80;;
37641;SDS011;23486;51.956;5.888;2023-04-24T11:17:29;9.38;;;1.00;;
37641;SDS011;23486;51.956;5.888;2023-04-24T11:20:16;6.95;;;0.63;;
37641;SDS011;23486;51.956;5.888;2023-04-24T11:22:42;6.18;;;0.70;;
37641;SDS011;23486;51.956;5.888;2023-04-24T11:25:08;4.82;;;0.50;;
37641;SDS011;23486;51.956;5.888;2023-04-24T11:27:40;6.78;;;0.70;;
37641;SDS011;23486;51.956;5.888;2023-04-24T11:30:08;5.10;;;0.47;;
37641;SDS011;23486;51.956;5.888;2023-04-24T11:32:42;4.22;;;0.43;;
37641;SDS011;23486;51.956;5.888;2023-04-24T11:35:18;3.03;;;0.40;;
37641;SDS011;23486;51.956;5.888;2023-04-24T11:37:46;7.90;;;0.68;;
37641;SDS011;23486;51.956;5.888;2023-04-24T11:40:14;2.92;;;0.45;;
37641;SDS011;23486;51.956;5.888;2023-04-24T11:42:42;3.00;;;0.40;;
37641;SDS011;23486;51.956;5.888;2023-04-24T11:45:23;5.20;;;0.40;;
37641;SDS011;23486;51.956;5.888;2023-04-24T11:47:50;2.22;;;0.20;;
37641;SDS011;23486;51.956;5.888;2023-04-24T11:50:16;2.15;;;0.30;;
37641;SDS011;23486;51.956;5.888;2023-04-24T11:52:44;2.67;;;0.30;;
37641;SDS011;23486;51.956;5.888;2023-04-24T11:57:52;2.08;;;0.30;;
37641;SDS011;23486;51.956;5.888;2023-04-24T12:00:22;1.70;;;0.20;;
37641;SDS011;23486;51.956;5.888;2023-04-24T12:03:03;2.67;;;0.40;;
37641;SDS011;23486;51.956;5.888;2023-04-24T12:05:33;3.42;;;0.40;;
37641;SDS011;23486;51.956;5.888;2023-04-24T12:07:59;4.65;;;0.30;;
37641;SDS011;23486;51.956;5.888;2023-04-24T12:10:26;4.65;;;0.22;;
37641;SDS011;23486;51.956;5.888;2023-04-24T12:12:55;2.55;;;0.50;;
37641;SDS011;23486;51.956;5.888;2023-04-24T12:15:22;3.28;;;0.40;;
37641;SDS011;23486;51.956;5.888;2023-04-24T12:17:50;1.83;;;0.30;;
37641;SDS011;23486;51.956;5.888;2023-04-24T12:20:17;3.25;;;0.40;;
37641;SDS011;23486;51.956;5.888;2023-04-24T12:22:53;1.33;;;0.30;;
37641;SDS011;23486;51.956;5.888;2023-04-24T12:25:21;2.40;;;0.30;;
37641;SDS011;23486;51.956;5.888;2023-04-24T12:27:57;2.35;;;0.30;;
37641;SDS011;23486;51.956;5.888;2023-04-24T12:30:44;1.65;;;0.30;;
37641;SDS011;23486;51.956;5.888;2023-04-24T12:33:17;3.75;;;0.40;;
37641;SDS011;23486;51.956;5.888;2023-04-24T12:35:43;2.95;;;0.20;;
37641;SDS011;23486;51.956;5.888;2023-04-24T12:38:10;3.30;;;0.32;;
37641;SDS011;23486;51.956;5.888;2023-04-24T12:40:39;4.53;;;0.40;;
37641;SDS011;23486;51.956;5.888;2023-04-24T12:43:19;4.15;;;0.40;;
37641;SDS011;23486;51.956;5.888;2023-04-24T12:45:45;2.50;;;0.30;;
37641;SDS011;23486;51.956;5.888;2023-04-24T12:48:12;4.78;;;0.32;;
37641;SDS011;23486;51.956;5.888;2023-04-24T12:50:41;1.92;;;0.30;;
37641;SDS011;23486;51.956;5.888;2023-04-24T12:53:08;2.47;;;0.28;;
37641;SDS011;23486;51.956;5.888;2023-04-24T12:55:34;1.95;;;0.20;;
37641;SDS011;23486;51.956;5.888;2023-04-24T12:58:00;3.22;;;0.30;;
37641;SDS011;23486;51.956;5.888;2023-04-24T13:00:26;3.65;;;0.28;;
37641;SDS011;23486;51.956;5.888;2023-04-24T13:02:52;2.65;;;0.30;;
37641;SDS011;23486;51.956;5.888;2023-04-24T13:05:18;2.40;;;0.30;;
37641;SDS011;23486;51.956;5.888;2023-04-24T13:07:43;2.78;;;0.20;;
37641;SDS011;23486;51.956;5.888;2023-04-24T13:10:09;4.30;;;0.40;;
37641;SDS011;23486;51.956;5.888;2023-04-24T13:12:35;4.22;;;0.35;;
37641;SDS011;23486;51.956;5.888;2023-04-24T13:15:00;2.50;;;0.20;;
37641;SDS011;23486;51.956;5.888;2023-04-24T13:17:26;2.60;;;0.30;;
37641;SDS011;23486;51.956;5.888;2023-04-24T13:19:54;2.25;;;0.20;;
37641;SDS011;23486;51.956;5.888;2023-04-24T13:22:23;4.60;;;0.45;;
37641;SDS011;23486;51.956;5.888;2023-04-24T13:24:48;2.83;;;0.60;;
37641;SDS011;23486;51.956;5.888;2023-04-24T13:27:15;7.10;;;0.50;;
37641;SDS011;23486;51.956;5.888;2023-04-24T13:29:43;4.53;;;0.40;;
37641;SDS011;23486;51.956;5.888;2023-04-24T13:32:09;3.70;;;0.50;;
37641;SDS011;23486;51.956;5.888;2023-04-24T13:34:35;5.43;;;0.40;;
37641;SDS011;23486;51.956;5.888;2023-04-24T13:37:01;3.47;;;0.40;;
37641;SDS011;23486;51.956;5.888;2023-04-24T13:39:28;4.07;;;0.40;;
37641;SDS011;23486;51.956;5.888;2023-04-24T13:41:54;4.00;;;0.38;;
37641;SDS011;23486;51.956;5.888;2023-04-24T13:44:23;7.57;;;0.80;;
37641;SDS011;23486;51.956;5.888;2023-04-24T13:46:50;7.22;;;0.70;;
37641;SDS011;23486;51.956;5.888;2023-04-24T13:49:19;3.50;;;0.40;;
37641;SDS011;23486;51.956;5.888;2023-04-24T13:51:49;8.07;;;0.50;;
37641;SDS011;23486;51.956;5.888;2023-04-24T13:54:15;6.53;;;0.60;;
37641;SDS011;23486;51.956;5.888;2023-04-24T13:56:41;9.25;;;0.50;;
37641;SDS011;23486;51.956;5.888;2023-04-24T13:59:07;6.68;;;0.93;;
37641;SDS011;23486;51.956;5.888;2023-04-24T14:01:33;8.20;;;0.70;;
37641;SDS011;23486;51.956;5.888;2023-04-24T14:03:59;5.22;;;0.47;;
37641;SDS011;23486;51.956;5.888;2023-04-24T14:06:24;5.95;;;0.63;;
37641;SDS011;23486;51.956;5.888;2023-04-24T14:08:50;6.55;;;0.52;;
37641;SDS011;23486;51.956;5.888;2023-04-24T14:11:17;7.65;;;0.60;;
37641;SDS011;23486;51.956;5.888;2023-04-24T14:13:43;6.13;;;0.50;;
37641;SDS011;23486;51.956;5.888;2023-04-24T14:16:10;4.93;;;0.50;;
37641;SDS011;23486;51.956;5.888;2023-04-24T14:18:36;6.13;;;0.60;;
37641;SDS011;23486;51.956;5.888;2023-04-24T14:21:02;5.63;;;0.70;;
37641;SDS011;23486;51.956;5.888;2023-04-24T14:23:28;5.43;;;0.70;;
37641;SDS011;23486;51.956;5.888;2023-04-24T14:26:15;6.20;;;0.70;;
37641;SDS011;23486;51.956;5.888;2023-04-24T14:28:40;9.57;;;1.25;;
37641;SDS011;23486;51.956;5.888;2023-04-24T14:31:06;9.27;;;0.90;;
37641;SDS011;23486;51.956;5.888;2023-04-24T14:33:32;6.00;;;0.60;;
37641;SDS011;23486;51.956;5.888;2023-04-24T14:35:57;11.57;;;0.70;;
37641;SDS011;23486;51.956;5.888;2023-04-24T14:38:23;7.13;;;0.75;;
37641;SDS011;23486;51.956;5.888;2023-04-24T14:40:49;10.07;;;0.90;;
37641;SDS011;23486;51.956;5.888;2023-04-24T14:43:14;3.72;;;1.10;;
37641;SDS011;23486;51.956;5.888;2023-04-24T14:45:40;5.43;;;0.70;;
37641;SDS011;23486;51.956;5.888;2023-04-24T14:48:06;6.60;;;0.90;;
37641;SDS011;23486;51.956;5.888;2023-04-24T14:50:33;5.05;;;0.50;;